Sonic Adventure (DX): Overall Rankings

Records: Times | Rings | Scores | Races | Bosses | Freestyle
Leaders: Times | Rings | Scores | Races | Bosses | Freestyle | Overall
Rank Order Asc Player Percent Points Date
1 Sonicspeedruner 98.3% 281 05-31-16
2 Gamepro011 98.2% 295 05-31-16
3 DarkPolarNight 96.2% 624 05-31-16
4 Jawzun 93.5% 1077 05-31-16
5 Dashjump 92.1% 1310 05-31-16
6 DarkspinesSonic 90.4% 1598 05-31-16
7 Avento128bits 90.0% 1653 05-31-16
8 ike6252 89.9% 1677 05-31-16
9 F-Man 88.1% 1983 05-31-16
10 Coolfansonic 85.2% 2459 05-31-16
11 HyperSonic7701 84.8% 2521 05-31-16
12 yoshifan 83.2% 2801 05-31-16
13 frankoredstrato 82.8% 2862 05-31-16
14 TheRealShadnic 81.9% 3004 05-31-16
15 francisco 81.8% 3025 05-31-16
16 Marth 81.5% 3073 05-31-16
17 InferSaime 80.3% 3275 05-31-16
18 PfoSonic 79.9% 3347 05-31-16
19 Paragod 79.5% 3406 05-31-16
20 THC98 78.5% 3578 05-31-16
21 Stefan 76.2% 3953 05-31-16
22 RPGnutter 74.1% 4307 05-31-16
23 bertin 73.9% 4342 05-31-16
24 sonicam 71.8% 4700 05-31-16
25 drminus 70.5% 4915 05-31-16
26 Combo 65.9% 5675 05-31-16
27 SkyLights 64.8% 5870 05-31-16
28 xXMegaManXx 64.0% 6000 05-31-16
29 Diamond 62.7% 6207 05-31-16
30 Auriman1 60.7% 6553 05-31-16
31 OmegaDJ 60.6% 6555 05-31-16
32 GerbilSoft 60.6% 6560 05-31-16
33 magnum12 59.7% 6714 05-31-16
34 Thorn 57.7% 7049 05-31-16
35 P1 Pause 57.5% 7088 05-31-16
36 mike89 56.4% 7263 05-31-16
37 Dave Cramer 54.4% 7591 05-31-16
38 Groudon199 54.4% 7592 05-31-16
39 chainchumper 54.1% 7645 05-31-16
40 Parax 53.3% 7775 05-31-16
41 Shadow Jacky 53.3% 7779 05-31-16
42 Psymar 48.2% 8637 05-31-16
43 Arch 46.6% 8899 05-31-16
44 Chao_Fan 46.5% 8922 05-31-16
45 mauserman 45.5% 9084 05-31-16
46 Quartz 45.4% 9103 05-31-16
47 teamblackarms 44.5% 9252 05-31-16
48 Psyknux 43.6% 9400 05-31-16
49 James_Bertolli 43.5% 9417 05-31-16
50 NintenDan 43.1% 9475 05-31-16
51 Webber3000 42.6% 9562 05-31-16
52 Turbos 42.5% 9584 05-31-16
53 Cream147 42.0% 9657 05-31-16
54 Ring Rush 42.0% 9663 05-31-16
55 videogamemaster777 41.9% 9674 05-31-16
56 Fr3nZy 41.6% 9724 05-31-16
57 Siavash Tazari 41.6% 9737 05-31-16
58 buddychaos0415 41.2% 9803 05-31-16
59 SadisticMystic 40.4% 9932 05-31-16
60 eggFL 39.8% 10034 05-31-16
61 Redd 39.0% 10166 05-31-16
62 SB737 38.2% 10297 05-31-16
63 supersonic465 37.4% 10428 05-31-16
64 supersonicfan 37.1% 10480 05-31-16
65 FuzZerd 35.9% 10688 05-31-16
66 elecmouse101 35.2% 10805 05-31-16
67 Austinf 33.7% 11042 05-31-16
68 metanightmare22 33.7% 11045 05-31-16
69 Aitamen 33.4% 11098 05-31-16
70 Cyan Ryan 33.4% 11107 05-31-16
71 dabestgamer 33.3% 11112 05-31-16
72 MiStEr_ShAoLiN 33.3% 11123 05-31-16
73 Andrea Ritsu 32.4% 11274 05-31-16
74 itsPersonnal 32.0% 11338 05-31-16
75 Cybrax 31.3% 11447 05-31-16
76 SilvertheAlmighty 31.2% 11473 05-31-16
77 danieldude 31.0% 11501 05-31-16
78 VMU Player Banned 29.1% 11809 05-31-16
79 Staf 28.9% 11858 05-31-16
80 Omega Rafael Santos 28.7% 11882 05-31-16
81 The T 28.5% 11918 05-31-16
82 EngiNerd 28.2% 11966 05-31-16
83 lordmetalsonic 27.6% 12059 05-31-16
84 welldooder64 27.1% 12158 05-31-16
85 Hipertails12 27.0% 12162 05-31-16
86 GreatStar 26.8% 12193 05-31-16
87 Sondow 26.7% 12214 05-31-16
88 The Great Lord Mick 26.7% 12223 05-31-16
89 LinksDarkArrows 26.4% 12260 05-31-16
90 Mastakirby 26.4% 12263 05-31-16
91 Nimrod 26.1% 12316 05-31-16
92 Skylace 25.4% 12431 05-31-16
93 Rolken 24.0% 12663 05-31-16
94 Xia 22.3% 12957 05-31-16
95 Spinballwizard 22.2% 12961 05-31-16
96 Kogen Player Banned 22.2% 12963 05-31-16
97 a_moustache 22.1% 12979 05-31-16
98 f0rever_zer0 21.7% 13045 05-31-16
99 Twilisailor 21.7% 13051 05-31-16
100 Cutiefox 21.6% 13071 05-31-16
101 Don 21.5% 13077 05-31-16
102 Game_Complete 21.4% 13106 05-31-16
103 Miles9999 21.3% 13122 05-31-16
104 andres430 20.9% 13181 05-31-16
105 Cruizer 20.7% 13211 05-31-16
106 iSonicKid2K 20.5% 13244 05-31-16
107 SADXTryHard 20.2% 13293 05-31-16
108 GarnetPrincess 19.8% 13360 05-31-16
109 AxlThunder 19.0% 13499 05-31-16
110 knuckles_sonic8 18.8% 13538 05-31-16
111 The Knuckles Chao 18.4% 13606 05-31-16
112 KinkyCadence 18.3% 13612 05-31-16
113 Team_Yoshi 18.1% 13656 05-31-16
114 Termon 17.9% 13678 05-31-16
115 LittleBigness 17.9% 13692 05-31-16
116 FoxBoy 17.8% 13701 05-31-16
117 SonicWinDX 17.6% 13727 05-31-16
118 Drakodan 16.9% 13846 05-31-16
119 Sonic Singularity 15.9% 14013 05-31-16
120 Pokemonmaster888 15.7% 14043 05-31-16
121 BigAL49 14.8% 14205 05-31-16
122 SilverSonic 14.6% 14238 05-31-16
123 MPit08 14.5% 14244 05-31-16
124 WeegeeZV 14.3% 14281 05-31-16
125 Mo Player Banned 14.2% 14309 05-31-16
126 koinu93 14.1% 14323 05-31-16
127 HyperSonic64 13.7% 14387 05-31-16
128 Cod4Scopes 13.6% 14396 05-31-16
129 Jerzia 13.6% 14405 05-31-16
130 booo95 13.5% 14411 05-31-16
131 paulie9990 13.3% 14448 05-31-16
132 Chawkk 13.3% 14450 05-31-16
133 SuperSonic101 13.1% 14480 05-31-16
134 Hunters13 13.1% 14493 05-31-16
135 Maxinfamily 13.0% 14507 05-31-16
136 Kanimayo_Jp 12.6% 14561 05-31-16
137 LilZero 12.6% 14562 05-31-16
138 BrokenArthritis 12.5% 14586 05-31-16
139 PsyBorg 12.4% 14598 05-31-16
140 Flying Fox 12.4% 14602 05-31-16
141 Therio 11.9% 14677 05-31-16
142 sonicspeed 11.9% 14678 05-31-16
143 douglas 11.8% 14697 05-31-16
144 Matt_TY 11.5% 14757 05-31-16
145 thewaytodawnnn 11.4% 14761 05-31-16
146 Cooljay 10.8% 14865 05-31-16
147 SeaWolf 10.7% 14881 05-31-16
148 joecoolgames 10.7% 14885 05-31-16
149 videogamer1014 10.4% 14927 05-31-16
150 AC-Tygo 10.2% 14964 05-31-16
151 welshmoose05 10.2% 14973 05-31-16
152 TFEC Headshot 10.0% 15008 05-31-16
153 OddCook 10.0% 15010 05-31-16
154 crazy1993 9.9% 15016 05-31-16
155 Mcshuggets 9.7% 15056 05-31-16
156 niscool 9.4% 15102 05-31-16
157 imazor017 9.3% 15114 05-31-16
158 nuckrieg 9.2% 15128 05-31-16
159 Mariobutch 9.2% 15131 05-31-16
160 SonicAD 9.2% 15143 05-31-16
161 Shadowthegreat 9.0% 15162 05-31-16
162 superjupi 9.0% 15167 05-31-16
163 SirTobbii 9.0% 15174 05-31-16
164 ethmar 8.7% 15218 05-31-16
165 sonamyfan666 8.7% 15220 05-31-16
166 iarebored 8.6% 15228 05-31-16
167 SaviourDC 8.6% 15240 05-31-16
168 SonicKnuckles 8.5% 15245 05-31-16
169 Werey 8.3% 15282 05-31-16
170 adf 8.2% 15303 05-31-16
171 Megaman EXE565 8.0% 15339 05-31-16
172 SuperBlitzCraig 7.9% 15349 05-31-16
173 ArcticDragon 7.7% 15381 05-31-16
174 Platformer 7.6% 15406 05-31-16
175 timpkmn89 7.4% 15429 05-31-16
176 FocusSight64 7.4% 15436 05-31-16
177 wheatrich 7.3% 15445 05-31-16
178 Swift Hobo 7.3% 15447 05-31-16
179 Rickyman48 7.1% 15479 05-31-16
180 KitsuneYamaro 7.0% 15503 05-31-16
181 Triseena 6.8% 15538 05-31-16
182 CyberShadow 6.6% 15572 05-31-16
183 dShadow 6.5% 15585 05-31-16
184 slade23 6.5% 15589 05-31-16
185 Destroyer121121 6.5% 15593 05-31-16
185 Starlight Sable 6.5% 15593 05-31-16
187 IsisDazs 6.4% 15608 05-31-16
188 BlankTH 6.1% 15655 05-31-16
189 Monkeh 6.0% 15666 05-31-16
190 SonicU260 5.8% 15705 05-31-16
191 Richied 5.8% 15706 05-31-16
192 DaDude 5.7% 15715 05-31-16
193 Vicklaw 5.6% 15732 05-31-16
194 sonicd5 5.6% 15736 05-31-16
195 Zip 5.5% 15747 05-31-16
196 VeritasDL 5.2% 15805 05-31-16
197 tal39h 5.2% 15810 05-31-16
198 Kirbymon30 5.1% 15818 05-31-16
199 soniccoloursunleashed 4.9% 15847 05-31-16
200 Drflash55 4.9% 15854 05-31-16
201 Bass 4.8% 15866 05-31-16
202 neaolas 4.7% 15883 05-31-16
202 Yish 4.7% 15883 05-31-16
204 zapp 4.6% 15895 05-31-16
205 UninspiredUsername 4.6% 15903 05-31-16
206 Sonicsuperstar1 4.6% 15904 05-31-16
207 superiorsonic 4.6% 15907 05-31-16
208 gamefreak1292 4.5% 15921 05-31-16
209 Badlex727 4.5% 15925 05-31-16
210 Chaos_Overlord 4.2% 15970 05-31-16
211 TakaRikka 4.1% 15990 05-31-16
212 Valfore 4.0% 16004 05-31-16
213 ShinigamiMachine 3.9% 16027 05-31-16
214 Regano1000 3.8% 16039 05-31-16
215 MK 3.6% 16061 05-31-16
216 Ace747 3.6% 16075 05-31-16
217 Illidan 3.2% 16132 05-31-16
218 HHNNBBHHN 3.2% 16136 05-31-16
219 Venick409 3.1% 16147 05-31-16
220 Brian_pso 3.1% 16149 05-31-16
221 nman36 3.1% 16151 05-31-16
222 Sithwarrior26 3.1% 16153 05-31-16
223 Egor305 3.0% 16172 05-31-16
224 ingx24 3.0% 16177 05-31-16
225 TheChaosEmeraIds 2.9% 16180 05-31-16
226 Nickson98 2.9% 16188 05-31-16
227 SkyBon 2.9% 16189 05-31-16
228 Fozer 2.8% 16203 05-31-16
229 FSSRandomvids 2.8% 16206 05-31-16
230 Colomb_30 2.7% 16215 05-31-16
231 dekki1234 2.7% 16218 05-31-16
232 sonic29887 2.7% 16222 05-31-16
233 Aiko 2.7% 16223 05-31-16
234 Wanamaker 2.7% 16225 05-31-16
235 TheUltraBlur 2.6% 16230 05-31-16
236 1stKirbyever 2.6% 16233 05-31-16
237 TimTH 2.5% 16245 05-31-16
238 Th4tN1nj4Turtl3 2.4% 16274 05-31-16
239 Cort_pso 2.3% 16278 05-31-16
240 ieatatsonic 2.3% 16288 05-31-16
241 Doom-9 2.3% 16290 05-31-16
242 Mariosonic15 2.3% 16293 05-31-16
243 SonataSpinDash 2.2% 16301 05-31-16
244 MStitomix 2.2% 16310 05-31-16
245 HermitHelmet 2.1% 16315 05-31-16
246 SuperSonic71087 2.1% 16323 05-31-16
247 Artie 2.0% 16328 05-31-16
247 Got4n 2.0% 16328 05-31-16
249 Jose_15 2.0% 16338 05-31-16
250 Questionguy555 2.0% 16341 05-31-16
251 djmat 1.9% 16360 05-31-16
252 SuperSonicfan9595 1.9% 16361 05-31-16
253 sonicandamy 1.7% 16380 05-31-16
254 LancexExWx 1.7% 16387 05-31-16
255 Paixii 1.7% 16390 05-31-16
256 Heroes_Hater 1.7% 16391 05-31-16
256 son1cgu1tar 1.7% 16391 05-31-16
258 BallzeH 1.6% 16405 05-31-16
259 Mankster101 1.5% 16412 05-31-16
260 BecauseWarAnvil 1.5% 16413 05-31-16
261 Jamixesa 1.5% 16414 05-31-16
262 Crydio 1.5% 16424 05-31-16
263 Shanekilz 1.4% 16429 05-31-16
264 SpiritDragon1995 1.4% 16431 05-31-16
265 ReuelBrony 1.4% 16437 05-31-16
266 stanski 1.4% 16444 05-31-16
267 MarewBFN 1.3% 16445 05-31-16
268 Sonique Hedgehog 1.3% 16450 05-31-16
269 p0ker 1.3% 16460 05-31-16
270 Blue Infamy 1.3% 16461 05-31-16
271 ErrortheCucco 1.2% 16471 05-31-16
272 Rikum22 1.2% 16474 05-31-16
273 Arthas 1.1% 16479 05-31-16
274 sonic1001 1.1% 16483 05-31-16
275 AJSIV 1.1% 16488 05-31-16
276 syco1098 1.1% 16490 05-31-16
276 WingedInsignia 1.1% 16490 05-31-16
278 Sonic the Hedgehod16 1.1% 16493 05-31-16
279 sonicfan9 1.0% 16501 05-31-16
280 Calfd 1.0% 16504 05-31-16
281 BlackArmsShadow 0.9% 16512 05-31-16
282 themachoman202 0.9% 16515 05-31-16
283 shadowblast63 Player Banned 0.9% 16522 05-31-16
284 Fivavoa 0.9% 16525 05-31-16
284 Greham Adelphis 0.9% 16525 05-31-16
284 Mr. Jones 0.9% 16525 05-31-16
287 MastaToken 0.9% 16526 05-31-16
288 darkstarblaze 0.9% 16527 05-31-16
289 arcfx1985 0.8% 16528 05-31-16
289 Ben1502 0.8% 16528 05-31-16
291 ptorflaxendrosis 0.8% 16530 05-31-16
292 FlandreScarlet9999vr 0.8% 16535 05-31-16
292 Gvozdevik 0.8% 16535 05-31-16
294 Knuckles 0.8% 16537 05-31-16
295 Zeldocto 0.8% 16538 05-31-16
296 BeeAwwb 0.8% 16541 05-31-16
297 KaM Mark MaK 0.8% 16544 05-31-16
298 ShadouZaHejjihoggu 0.7% 16550 05-31-16
299 Sonic The Star 0.7% 16557 05-31-16
299 Sonic62 0.7% 16557 05-31-16
301 darkersupershadic 0.7% 16558 05-31-16
302 dragondragon18 0.6% 16562 05-31-16
302 Sarger001 0.6% 16562 05-31-16
302 Sogeking 0.6% 16562 05-31-16
305 SonicK100 0.6% 16563 05-31-16
306 Grady219 0.6% 16564 05-31-16
306 Shadygamerfreak 0.6% 16564 05-31-16
308 Jawaah 0.6% 16569 05-31-16
309 Antek 0.6% 16574 05-31-16
310 Klaus 0.6% 16576 05-31-16
311 SilverK 0.6% 16577 05-31-16
312 BioShadow 0.5% 16579 05-31-16
313 SpinDashMaster 0.5% 16583 05-31-16
314 Videogamer123 0.5% 16586 05-31-16
315 oTaiIilLsS 0.4% 16599 05-31-16
316 isaihtb11 0.4% 16600 05-31-16
317 OhNoes! 0.4% 16602 05-31-16
318 zaktu40 0.4% 16604 05-31-16
319 Mad Andy 0.4% 16605 05-31-16
320 S-MS32X-S 0.4% 16606 05-31-16
321 gaara1234 0.4% 16607 05-31-16
322 gamed00d 0.4% 16611 05-31-16
323 Mister_Slick 0.3% 16617 05-31-16
324 Sonic06Fan 0.3% 16621 05-31-16
325 Rush Hero 0.3% 16623 05-31-16
326 Iwannabelink 0.3% 16627 05-31-16
327 SonicMega167 0.2% 16628 05-31-16
328 sonknuck23 0.2% 16633 05-31-16
329 DanielTheFalcon 0.2% 16639 05-31-16
330 gamer1245 0.2% 16640 05-31-16
331 Burningskull123 0.1% 16647 05-31-16
332 Sonicontherun 0.1% 16657 05-31-16
333 Lil_Dude 0.1% 16661 05-31-16
334 antiwwe 0.0% 16663 05-31-16
335 Genuine Hedgehog 0.0% 16667 05-31-16
336 Cbwade15 0.0% 16668 05-31-16
337 Tyrouble 0.0% 16671 05-31-16
338 MegabombBlade 0.0% 16678 05-31-16
338 neji_hyuuga 0.0% 16678 05-31-16
338 Over 0.0% 16678 05-31-16
338 sdj6707 Player Banned 0.0% 16678 05-31-16
338 Tran Sonic Fan Player Banned 0.0% 16678 05-31-16

This page is using the New Data Table System. [FUTURE]

Game ID: 3 | Category ID: 10
Hits: 66,906 | Hits This Month: 231 | DB Calls: 21 | Mem Usage: 5.46 MB | Time: 0.31s | Printable

The Sonic Center v3.9
Copyright 2003-2011 by The Sonic Center Team.